Zia Pueblo, New Mexico
Current Conditions -  °F | °C
As of 11:54 AM on Monday 20 Oct 2014 (Local Time) from KAEG Reporting Station
Broken Clouds Broken Clouds  
Wind Chill: 18°   Ceiling: 9000
Heat Index: 18°   Visibility: 10mi
Dew Point:   Wind: 0mph
Humidity: 42%   Direction: NA
Pressure: 30.22"   Gusts: NA
Location:  35.5626°N, 106.824°W
Report Text: KAEG 201754Z 00000KT 10SM BKN090 BKN160 18/05 A3022
Loading
Personal Weather Stations






























Interactive Weather Map
Tropical Storm Tracking
New forecast layout! Learn more

10-Day Weather Forecast

Advertisements
Track Severe Weather on mobile